createdAt,value
2023-02-17T00:01:22.688Z,99293.22
2023-02-17T00:04:08.347Z,99297.97
2023-02-17T00:06:53.489Z,99291.66
2023-02-17T00:09:38.914Z,99298.75
2023-02-17T00:12:24.707Z,99303.13
2023-02-17T00:15:10.318Z,99298.75
2023-02-17T00:17:55.887Z,99305.06
2023-02-17T00:20:41.104Z,99297.97
2023-02-17T00:23:26.354Z,99303.13
2023-02-17T00:26:12.263Z,99292.78
2023-02-17T00:28:58.259Z,99297.97
2023-02-17T00:31:45.142Z,99289.66
2023-02-17T00:34:31.714Z,99291.66
2023-02-17T00:37:17.458Z,99289.66
2023-02-17T00:40:02.965Z,99281.34
2023-02-17T00:42:49.029Z,99280.97
2023-02-17T00:45:34.510Z,99282.50
2023-02-17T00:48:19.895Z,99271.03
2023-02-17T00:51:05.468Z,99271.03
2023-02-17T00:53:53.100Z,99278.19
2023-02-17T00:56:38.817Z,99267.09
2023-02-17T00:59:24.027Z,99273.41
2023-02-17T01:02:09.348Z,99265.88
2023-02-17T01:04:55.081Z,99263.53
2023-02-17T01:07:41.780Z,99275.81
2023-02-17T01:10:26.794Z,99269.88
2023-02-17T01:13:13.694Z,99254.41
2023-02-17T01:15:59.133Z,99256.41
2023-02-17T01:18:44.490Z,99263.94
2023-02-17T01:21:30.872Z,99261.16
2023-02-17T01:24:16.491Z,99268.72
2023-02-17T01:27:01.869Z,99256.03
2023-02-17T01:29:47.338Z,99256.84
2023-02-17T01:32:32.755Z,99257.63
2023-02-17T01:35:18.036Z,99256.84
2023-02-17T01:38:03.348Z,99249.69
2023-02-17T01:40:48.641Z,99245.75
2023-02-17T01:43:34.350Z,99252.84
2023-02-17T01:46:20.586Z,99249.28
2023-02-17T01:49:15.426Z,99233.06
2023-02-17T01:58:00.120Z,99235.84
2023-02-17T02:00:46.631Z,99221.97
2023-02-17T02:03:36.296Z,99205.75
2023-02-17T02:06:26.191Z,99214.06
2023-02-17T02:09:20.368Z,99210.50
2023-02-17T02:12:21.876Z,99216.06
2023-02-17T02:15:26.303Z,99200.63
2023-02-17T02:18:26.742Z,99203.41
2023-02-17T02:21:18.140Z,99197.09
2023-02-17T02:24:24.761Z,99178.84
2023-02-17T02:27:20.517Z,99176.88
2023-02-17T02:30:16.505Z,99171.31
2023-02-17T02:33:12.490Z,99168.53
2023-02-17T02:36:30.498Z,99153.50
2023-02-17T02:39:20.157Z,99146.34
2023-02-17T02:42:09.257Z,99138.03
2023-02-17T02:44:54.541Z,99134.50
2023-02-17T02:47:56.825Z,99134.50
2023-02-17T02:50:53.661Z,99129.72
2023-02-17T02:53:56.634Z,99129.72
2023-02-17T02:57:12.315Z,99128.56
2023-02-17T03:00:09.168Z,99137.66
2023-02-17T03:03:10.828Z,99140.44
2023-02-17T03:06:09.227Z,99146.81
2023-02-17T03:09:04.825Z,99128.56
2023-02-17T03:11:51.058Z,99127.78
2023-02-17T03:14:38.716Z,99119.47
2023-02-17T03:17:24.084Z,99126.22
2023-02-17T03:20:10.346Z,99143.66
2023-02-17T03:22:56.256Z,99133.34
2023-02-17T03:25:45.017Z,99121.47
2023-02-17T03:28:31.405Z,99115.94
2023-02-17T03:31:17.028Z,99114.34
2023-02-17T03:34:02.798Z,99111.16
2023-02-17T03:36:47.980Z,99105.25
2023-02-17T03:39:33.553Z,99120.66
2023-02-17T03:42:18.813Z,99114.78
2023-02-17T03:45:04.813Z,99115.59
2023-02-17T03:47:50.106Z,99117.22
2023-02-17T03:50:35.393Z,99113.22
2023-02-17T03:53:20.679Z,99098.22
2023-02-17T03:56:06.555Z,99114.06
2023-02-17T03:58:52.363Z,99114.06
2023-02-17T04:01:37.820Z,99118.06
2023-02-17T04:04:23.173Z,99114.47
2023-02-17T04:07:08.582Z,99110.53
2023-02-17T04:09:54.064Z,99122.03
2023-02-17T04:12:39.342Z,99114.91
2023-02-17T04:15:24.631Z,99118.47
2023-02-17T04:18:09.833Z,99119.69
2023-02-17T04:20:55.309Z,99107.41
2023-02-17T04:23:40.849Z,99122.09
2023-02-17T04:26:26.360Z,99116.53
2023-02-17T04:29:11.743Z,99109.41
2023-02-17T04:31:57.529Z,99111.38
2023-02-17T04:34:43.067Z,99101.84
2023-02-17T04:37:28.290Z,99092.31
2023-02-17T04:40:14.020Z,99087.13
2023-02-17T04:42:59.644Z,99092.69
2023-02-17T04:45:45.028Z,99089.13
2023-02-17T04:48:30.416Z,99096.66
2023-02-17T04:51:15.746Z,99080.03
2023-02-17T04:54:01.059Z,99077.25
2023-02-17T04:56:46.381Z,99082.03
2023-02-17T04:59:31.624Z,99082.03
2023-02-17T05:02:17.113Z,99078.03
2023-02-17T05:05:02.300Z,99078.81
2023-02-17T05:07:48.150Z,99079.91
2023-02-17T05:10:33.661Z,99070.81
2023-02-17T05:13:19.216Z,99069.59
2023-02-17T05:16:05.378Z,99067.56
2023-02-17T05:18:50.708Z,99062.81
2023-02-17T05:21:36.157Z,99068.72
2023-02-17T05:30:39.935Z,99057.22
2023-02-17T05:33:24.600Z,99051.25
2023-02-17T05:36:10.349Z,99051.69
2023-02-17T05:38:54.757Z,99048.50
2023-02-17T05:41:39.982Z,99050.81
2023-02-17T05:44:25.538Z,99048.88
2023-02-17T05:47:10.677Z,99042.50
2023-02-17T05:49:55.933Z,99043.31
2023-02-17T05:52:41.147Z,99042.94
2023-02-17T05:55:26.451Z,99040.53
2023-02-17T05:58:11.908Z,99042.09
2023-02-17T06:00:57.126Z,99033.00
2023-02-17T06:03:42.567Z,99032.56
2023-02-17T06:06:27.695Z,99038.91
2023-02-17T06:09:13.044Z,99042.09
2023-02-17T06:11:58.300Z,99042.47
2023-02-17T06:14:43.416Z,99025.81
2023-02-17T06:17:28.813Z,99028.59
2023-02-17T06:20:14.447Z,99017.09
2023-02-17T06:23:00.083Z,99028.19
2023-02-17T06:25:45.937Z,99026.19
2023-02-17T06:28:34.254Z,99029.75
2023-02-17T06:31:20.380Z,99025.41
2023-02-17T06:34:06.789Z,99033.28
2023-02-17T06:36:52.260Z,99039.66
2023-02-17T06:39:37.500Z,99047.16
2023-02-17T06:42:22.714Z,99038.84
2023-02-17T06:45:08.581Z,99038.47
2023-02-17T06:47:53.804Z,99036.06
2023-02-17T06:50:39.271Z,99036.06
2023-02-17T06:53:24.985Z,99042.41
2023-02-17T06:56:10.223Z,99034.88
2023-02-17T06:58:55.509Z,99032.09
2023-02-17T07:01:40.749Z,99036.44
2023-02-17T07:04:26.021Z,99029.34
2023-02-17T07:07:12.888Z,99030.53
2023-02-17T07:09:58.304Z,99036.44
2023-02-17T07:12:43.706Z,99026.56
2023-02-17T07:15:29.453Z,99031.66
2023-02-17T07:18:14.884Z,99036.03
2023-02-17T07:21:00.716Z,99030.13
2023-02-17T07:23:46.228Z,99034.44
2023-02-17T07:26:31.657Z,99024.94
2023-02-17T07:29:16.937Z,99034.81
2023-02-17T07:32:02.220Z,99026.94
2023-02-17T07:34:47.633Z,99022.16
2023-02-17T07:37:34.115Z,99030.88
2023-02-17T07:40:19.626Z,99022.94
2023-02-17T07:43:05.111Z,99020.56
2023-02-17T07:45:54.605Z,99022.19
2023-02-17T07:48:40.324Z,99022.19
2023-02-17T07:51:26.110Z,99008.69
2023-02-17T07:54:13.251Z,99014.25
2023-02-17T07:56:58.599Z,99010.28
2023-02-17T07:59:43.899Z,99008.69
2023-02-17T08:02:29.134Z,99011.06
2023-02-17T08:05:14.462Z,99013.06
2023-02-17T08:08:18.494Z,99018.97
2023-02-17T08:11:22.512Z,99026.94
2023-02-17T08:14:07.772Z,99028.47
2023-02-17T08:16:53.444Z,99030.06
2023-02-17T08:19:48.146Z,99041.16
2023-02-17T08:22:33.876Z,99021.31
2023-02-17T08:25:19.407Z,99028.84
2023-02-17T08:28:06.136Z,99032.41
2023-02-17T08:30:51.600Z,99020.56
2023-02-17T08:33:37.348Z,99035.63
2023-02-17T08:36:24.724Z,99025.28
2023-02-17T08:39:14.252Z,99019.75
2023-02-17T08:42:00.184Z,99023.72
2023-02-17T08:44:45.599Z,99020.53
2023-02-17T08:47:31.045Z,99005.09
2023-02-17T08:50:20.113Z,99006.66
2023-02-17T08:53:05.344Z,99006.66
2023-02-17T08:55:50.922Z,99003.88
2023-02-17T08:58:36.301Z,98995.16
2023-02-17T09:01:21.985Z,98985.69
2023-02-17T09:04:09.336Z,98992.78
2023-02-17T09:06:58.473Z,98980.50
2023-02-17T09:09:44.782Z,98977.72
2023-02-17T09:12:30.758Z,98984.84
2023-02-17T09:15:16.045Z,98973.75
2023-02-17T09:18:01.237Z,98963.00
2023-02-17T09:20:46.892Z,98963.38
2023-02-17T09:23:32.401Z,98964.16
2023-02-17T09:26:18.229Z,98959.38
2023-02-17T09:29:04.675Z,98955.06
2023-02-17T09:31:50.331Z,98960.16
2023-02-17T09:34:37.597Z,98959.38
2023-02-17T09:37:23.615Z,98954.59
2023-02-17T09:40:15.912Z,98944.31
2023-02-17T09:43:01.838Z,98956.56
2023-02-17T09:45:51.410Z,98955.78
2023-02-17T09:48:38.456Z,98947.47
2023-02-17T09:51:30.547Z,98936.38
2023-02-17T09:54:24.025Z,98945.47
2023-02-17T09:57:15.875Z,98924.47
2023-02-17T11:09:33.014Z,98797.59
2023-02-17T11:12:25.084Z,98800.00
2023-02-17T11:15:20.375Z,98811.44
2023-02-17T11:18:20.402Z,98792.03
2023-02-17T11:21:09.190Z,98804.34
2023-02-17T11:24:04.348Z,98796.03
2023-02-17T11:27:04.962Z,98769.84
2023-02-17T11:29:50.383Z,98774.63
2023-02-17T11:32:36.254Z,98769.50
2023-02-17T11:35:46.449Z,98768.28
2023-02-17T11:38:40.688Z,98769.06
2023-02-17T11:41:25.667Z,98775.41
2023-02-17T11:44:12.611Z,98776.16
2023-02-17T11:47:28.066Z,98765.06
2023-02-17T11:50:41.363Z,98761.09
2023-02-17T11:53:42.368Z,98752.00
2023-02-17T11:56:36.929Z,98753.97
2023-02-17T11:59:50.095Z,98740.91
2023-02-17T12:03:12.640Z,98751.19
2023-02-17T12:06:07.641Z,98736.13
2023-02-17T12:09:11.965Z,98741.69
2023-02-17T12:12:21.244Z,98738.13
2023-02-17T12:15:15.851Z,98727.81
2023-02-17T12:18:39.041Z,98727.81
2023-02-17T12:21:38.536Z,98715.13
2023-02-17T12:24:45.950Z,98708.41
2023-02-17T12:27:49.901Z,98711.19
2023-02-17T12:30:48.454Z,98708.41
2023-02-17T12:33:52.230Z,98696.06
2023-02-17T12:36:40.414Z,98688.97
2023-02-17T12:39:42.419Z,98689.75
2023-02-17T12:43:00.787Z,98662.00
2023-02-17T12:45:48.930Z,98671.56
2023-02-17T12:48:38.726Z,98671.56
2023-02-17T12:51:26.989Z,98662.78
2023-02-17T12:54:38.272Z,98658.47
2023-02-17T12:57:32.910Z,98645.38
2023-02-17T13:00:26.661Z,98645.38
2023-02-17T13:03:12.552Z,98636.28
2023-02-17T13:06:28.212Z,98621.19
2023-02-17T13:09:16.766Z,98621.19
2023-02-17T13:12:22.571Z,98603.34
2023-02-17T13:15:31.255Z,98628.31
2023-02-17T13:18:32.596Z,98619.22
2023-02-17T13:21:27.720Z,98620.75
2023-02-17T13:24:31.433Z,98609.66
2023-02-17T13:27:28.892Z,98607.66
2023-02-17T13:30:39.499Z,98597.03
2023-02-17T13:33:24.911Z,98585.94
2023-02-17T13:36:17.016Z,98583.16
2023-02-17T13:39:26.526Z,98585.13
2023-02-17T13:42:39.053Z,98582.34
2023-02-17T13:45:28.266Z,98575.59
2023-02-17T13:48:23.489Z,98578.81
2023-02-17T13:51:25.978Z,98568.47
2023-02-17T13:54:12.643Z,98570.81
2023-02-17T13:56:57.774Z,98556.97
2023-02-17T13:59:43.076Z,98572.81
2023-02-17T14:02:36.043Z,98571.59
2023-02-17T14:05:26.250Z,98558.97
2023-02-17T14:08:34.017Z,98583.94
2023-02-17T14:11:22.246Z,98557.72
2023-02-17T14:14:08.188Z,98556.19
2023-02-17T14:17:03.878Z,98555.50
2023-02-17T14:19:50.532Z,98556.72
2023-02-17T14:22:37.715Z,98544.03
2023-02-17T14:25:28.996Z,98547.16
2023-02-17T14:28:25.924Z,98553.84
2023-02-17T14:31:12.685Z,98548.63
2023-02-17T14:34:02.437Z,98551.00
2023-02-17T14:36:47.672Z,98531.13
2023-02-17T14:39:32.966Z,98543.00
2023-02-17T14:42:18.182Z,98528.25
2023-02-17T14:45:03.892Z,98500.88
2023-02-17T14:47:49.236Z,98513.09
2023-02-17T14:50:42.208Z,98521.41
2023-02-17T14:53:30.600Z,98528.84
2023-02-17T14:56:36.406Z,98521.34
2023-02-17T14:59:21.763Z,98521.34
2023-02-17T15:02:18.955Z,98545.06
2023-02-17T15:05:04.103Z,98527.66
2023-02-17T15:07:49.632Z,98547.50
2023-02-17T15:10:37.501Z,98523.66
2023-02-17T15:13:22.784Z,98539.44
2023-02-17T15:16:08.315Z,98530.66
2023-02-17T15:18:54.291Z,98533.03
2023-02-17T15:21:44.234Z,98540.13
2023-02-17T15:24:36.547Z,98532.59
2023-02-17T15:27:22.010Z,98538.50
2023-02-17T15:30:11.955Z,98566.25
2023-02-17T15:32:57.453Z,98541.59
2023-02-17T15:35:43.356Z,98562.22
2023-02-17T15:38:28.874Z,98577.34
2023-02-17T15:41:21.770Z,98601.97
2023-02-17T15:44:14.369Z,98602.38
2023-02-17T15:47:00.797Z,98617.50
2023-02-17T15:49:46.731Z,98606.03
2023-02-17T15:52:31.964Z,98588.50
2023-02-17T15:55:20.694Z,98592.88
2023-02-17T15:58:10.421Z,98575.00
2023-02-17T16:01:01.588Z,98605.09
2023-02-17T16:03:47.177Z,98607.06
2023-02-17T16:06:32.642Z,98620.16
2023-02-17T16:09:20.059Z,98613.41
2023-02-17T16:12:08.475Z,98598.75
2023-02-17T16:14:55.305Z,98601.19
2023-02-17T16:17:40.549Z,98607.59
2023-02-17T16:20:34.997Z,98600.91
2023-02-17T16:23:20.581Z,98597.38
2023-02-17T16:26:12.996Z,98600.56
2023-02-17T16:29:00.160Z,98597.38
2023-02-17T16:31:46.563Z,98606.75
2023-02-17T16:34:34.859Z,98607.88
2023-02-17T16:37:20.385Z,98589.13
2023-02-17T16:40:17.183Z,98599.38
2023-02-17T16:43:03.834Z,98588.22
2023-02-17T16:45:58.534Z,98599.38
2023-02-17T16:48:43.801Z,98598.16
2023-02-17T16:51:29.247Z,98603.72
2023-02-17T16:54:16.864Z,98580.31
2023-02-17T16:57:02.055Z,98571.56
2023-02-17T16:59:47.495Z,98556.88
2023-02-17T17:02:33.006Z,98590.19
2023-02-17T17:05:19.701Z,98577.09
2023-02-17T17:08:06.804Z,98575.44
2023-02-17T17:10:52.235Z,98557.22
2023-02-17T17:13:37.511Z,98548.47
2023-02-17T17:16:26.752Z,98548.47
2023-02-17T17:19:13.472Z,98553.25
2023-02-17T17:21:58.640Z,98567.97
2023-02-17T17:24:45.219Z,98563.66
2023-02-17T17:27:32.742Z,98548.66
2023-02-17T17:30:22.707Z,98572.47
2023-02-17T17:33:07.888Z,98570.13
2023-02-17T17:35:53.891Z,98567.44
2023-02-17T17:38:39.544Z,98582.53
2023-02-17T17:41:26.884Z,98578.66
2023-02-17T17:44:14.655Z,98570.75
2023-02-17T17:47:00.769Z,98577.94
2023-02-17T17:50:13.523Z,98573.59
2023-02-17T17:53:00.090Z,98587.56
2023-02-17T17:55:46.390Z,98609.78
2023-02-17T17:58:41.343Z,98611.41
2023-02-17T18:01:27.579Z,98613.03
2023-02-17T18:04:13.718Z,98619.03
2023-02-17T18:06:59.561Z,98622.25
2023-02-17T18:09:45.440Z,98622.25
2023-02-17T18:12:33.539Z,98620.69
2023-02-17T18:15:19.306Z,98604.03
2023-02-17T18:18:05.655Z,98623.13
2023-02-17T18:20:51.536Z,98644.53
2023-02-17T18:23:36.829Z,98652.06
2023-02-17T18:26:24.828Z,98648.16
2023-02-17T18:29:12.056Z,98656.06
2023-02-17T18:31:59.339Z,98669.56
2023-02-17T18:34:46.074Z,98672.34
2023-02-17T18:37:31.670Z,98684.63
2023-02-17T18:40:21.354Z,98698.50
2023-02-17T18:43:08.236Z,98705.69
2023-02-17T18:45:53.853Z,98712.81
2023-02-17T18:48:41.165Z,98725.47
2023-02-17T18:51:27.751Z,98729.00
2023-02-17T18:54:14.608Z,98720.69
2023-02-17T18:57:01.784Z,98716.38
2023-02-17T18:59:47.302Z,98723.91
2023-02-17T19:02:36.969Z,98737.78
2023-02-17T19:05:23.618Z,98743.31
2023-02-17T19:08:10.164Z,98764.38
2023-02-17T19:10:55.944Z,98771.50
2023-02-17T19:13:41.734Z,98760.38
2023-02-17T19:19:54.190Z,98759.19
2023-02-17T19:22:39.947Z,98760.38
2023-02-17T19:25:25.752Z,98761.63
2023-02-17T19:28:11.288Z,98751.28
2023-02-17T19:30:57.404Z,98769.94
2023-02-17T19:33:44.337Z,98767.16
2023-02-17T19:36:29.618Z,98774.69
2023-02-17T19:39:15.133Z,98769.94
2023-02-17T19:44:43.079Z,98761.63
2023-02-17T19:47:30.123Z,98741.03
2023-02-17T19:50:17.304Z,98759.25
2023-02-17T19:53:03.993Z,98752.94
2023-02-17T19:55:49.048Z,98757.69
2023-02-17T19:58:34.048Z,98759.69
2023-02-17T20:04:24.490Z,98777.09
2023-02-17T20:07:09.886Z,98781.09
2023-02-17T20:09:55.706Z,98780.31
2023-02-17T20:12:41.107Z,98769.56
2023-02-17T20:15:26.686Z,98781.09
2023-02-17T20:18:11.981Z,98794.97
2023-02-17T20:20:57.431Z,98777.19
2023-02-17T20:23:43.723Z,98771.28
2023-02-17T20:26:37.869Z,98781.97
2023-02-17T20:29:23.257Z,98789.47
2023-02-17T20:32:08.817Z,98786.69
2023-02-17T20:34:54.207Z,98791.06
2023-02-17T20:37:39.921Z,98793.47
2023-02-17T20:40:35.441Z,98790.69
2023-02-17T20:43:21.586Z,98789.91
2023-02-17T20:46:07.901Z,98796.25
2023-02-17T20:48:54.455Z,98795.47
2023-02-17T20:51:40.542Z,98786.69
2023-02-17T20:54:27.279Z,98790.69
2023-02-17T20:57:15.289Z,98786.69
2023-02-17T21:00:00.780Z,98804.16
2023-02-17T21:02:46.147Z,98799.00
2023-02-17T21:05:31.443Z,98812.88
2023-02-17T21:08:16.943Z,98818.00
2023-02-17T21:11:02.128Z,98815.25
2023-02-17T21:13:47.703Z,98819.19
2023-02-17T21:16:33.238Z,98813.66
2023-02-17T21:19:19.558Z,98805.34
2023-02-17T21:22:05.465Z,98807.34
2023-02-17T21:24:50.987Z,98805.78
2023-02-17T21:27:36.757Z,98806.56
2023-02-17T21:30:22.116Z,98809.34
2023-02-17T21:33:07.575Z,98812.88
2023-02-17T21:35:53.595Z,98820.06
2023-02-17T21:38:39.908Z,98825.63
2023-02-17T21:41:27.670Z,98832.72
2023-02-17T21:44:31.789Z,98831.94
2023-02-17T21:47:17.216Z,98839.47
2023-02-17T21:50:02.404Z,98848.22
2023-02-17T21:52:47.778Z,98862.09
2023-02-17T21:55:33.074Z,98879.94
2023-02-17T21:58:18.752Z,98883.50
2023-02-17T22:01:06.211Z,98877.94
2023-02-17T22:03:52.160Z,98885.50
2023-02-17T22:06:40.706Z,98894.22
2023-02-17T22:09:26.386Z,98902.53
2023-02-17T22:12:11.570Z,98908.88
2023-02-17T22:14:57.126Z,98913.63
2023-02-17T22:17:42.474Z,98931.06
2023-02-17T22:20:28.845Z,98926.28
2023-02-17T22:23:14.340Z,98944.50
2023-02-17T22:25:59.627Z,98936.97
2023-02-17T22:28:45.208Z,98948.41
2023-02-17T22:31:32.300Z,98946.88
2023-02-17T22:34:17.700Z,98937.31
2023-02-17T22:37:03.311Z,98980.91
2023-02-17T22:39:52.768Z,98975.38
2023-02-17T22:42:38.138Z,98978.50
2023-02-17T22:45:23.482Z,98979.28
2023-02-17T22:48:08.710Z,98982.84
2023-02-17T22:50:54.155Z,98974.16
2023-02-17T22:53:39.670Z,98978.50
2023-02-17T22:56:25.419Z,98975.75
2023-02-17T22:59:10.803Z,98969.41
2023-02-17T23:01:59.088Z,98975.28
2023-02-17T23:04:44.375Z,98980.84
2023-02-17T23:07:29.440Z,98988.81
2023-02-17T23:10:14.870Z,98992.38
2023-02-17T23:13:00.313Z,98989.59
2023-02-17T23:15:45.757Z,98995.16
2023-02-17T23:18:33.680Z,98999.13
2023-02-17T23:21:20.127Z,98994.00
2023-02-17T23:24:05.817Z,99005.47
2023-02-17T23:26:51.971Z,99014.97
2023-02-17T23:29:39.151Z,98997.16
2023-02-17T23:32:24.733Z,98995.16
2023-02-17T23:35:11.782Z,98995.16
2023-02-17T23:37:57.374Z,99001.47
2023-02-17T23:40:47.336Z,99005.47
2023-02-17T23:43:32.842Z,99005.47
2023-02-17T23:46:18.324Z,99011.03
2023-02-17T23:49:04.041Z,99012.22
2023-02-17T23:51:49.258Z,99014.13
2023-02-17T23:54:34.608Z,99016.13
2023-02-17T23:57:20.017Z,99011.78
